sensor_id;sensor_type;location;lat;lon;timestamp;P1;durP1;ratioP1;P2;durP2;ratioP2
23155;SDS011;11746;50.876;4.246;2023-09-08T00:00:15;7.35;;;5.35;;
23155;SDS011;11746;50.876;4.246;2023-09-08T00:02:43;7.80;;;5.55;;
23155;SDS011;11746;50.876;4.246;2023-09-08T00:05:11;8.52;;;5.60;;
23155;SDS011;11746;50.876;4.246;2023-09-08T00:07:36;7.40;;;5.57;;
23155;SDS011;11746;50.876;4.246;2023-09-08T00:10:02;6.38;;;5.47;;
23155;SDS011;11746;50.876;4.246;2023-09-08T00:12:28;6.85;;;5.50;;
23155;SDS011;11746;50.876;4.246;2023-09-08T00:14:56;9.60;;;5.32;;
23155;SDS011;11746;50.876;4.246;2023-09-08T00:17:27;7.15;;;5.28;;
23155;SDS011;11746;50.876;4.246;2023-09-08T00:19:53;8.80;;;4.85;;
23155;SDS011;11746;50.876;4.246;2023-09-08T00:22:18;7.95;;;5.60;;
23155;SDS011;11746;50.876;4.246;2023-09-08T00:24:46;8.43;;;5.88;;
23155;SDS011;11746;50.876;4.246;2023-09-08T00:27:12;10.68;;;6.07;;
23155;SDS011;11746;50.876;4.246;2023-09-08T00:29:39;9.98;;;5.72;;
23155;SDS011;11746;50.876;4.246;2023-09-08T00:32:05;9.85;;;6.15;;
23155;SDS011;11746;50.876;4.246;2023-09-08T00:34:31;8.00;;;5.70;;
23155;SDS011;11746;50.876;4.246;2023-09-08T00:36:56;8.88;;;6.00;;
23155;SDS011;11746;50.876;4.246;2023-09-08T00:39:22;9.90;;;5.57;;
23155;SDS011;11746;50.876;4.246;2023-09-08T00:41:50;8.18;;;5.60;;
23155;SDS011;11746;50.876;4.246;2023-09-08T00:44:16;11.07;;;5.30;;
23155;SDS011;11746;50.876;4.246;2023-09-08T00:46:41;8.93;;;5.65;;
23155;SDS011;11746;50.876;4.246;2023-09-08T00:49:09;7.10;;;5.28;;
23155;SDS011;11746;50.876;4.246;2023-09-08T00:51:36;9.15;;;5.25;;
23155;SDS011;11746;50.876;4.246;2023-09-08T00:54:02;9.02;;;5.22;;
23155;SDS011;11746;50.876;4.246;2023-09-08T00:56:31;6.80;;;4.95;;
23155;SDS011;11746;50.876;4.246;2023-09-08T00:58:56;10.57;;;5.35;;
23155;SDS011;11746;50.876;4.246;2023-09-08T01:01:24;5.95;;;4.85;;
23155;SDS011;11746;50.876;4.246;2023-09-08T01:03:50;8.80;;;5.50;;
23155;SDS011;11746;50.876;4.246;2023-09-08T01:06:15;8.38;;;5.53;;
23155;SDS011;11746;50.876;4.246;2023-09-08T01:08:42;7.70;;;5.57;;
23155;SDS011;11746;50.876;4.246;2023-09-08T01:11:08;7.10;;;4.82;;
23155;SDS011;11746;50.876;4.246;2023-09-08T01:13:37;6.70;;;5.15;;
23155;SDS011;11746;50.876;4.246;2023-09-08T01:16:02;7.88;;;4.88;;
23155;SDS011;11746;50.876;4.246;2023-09-08T01:18:30;10.93;;;5.78;;
23155;SDS011;11746;50.876;4.246;2023-09-08T01:26:12;6.70;;;5.25;;
23155;SDS011;11746;50.876;4.246;2023-09-08T01:28:44;7.47;;;5.07;;
23155;SDS011;11746;50.876;4.246;2023-09-08T01:31:11;8.30;;;5.50;;
23155;SDS011;11746;50.876;4.246;2023-09-08T01:33:38;8.15;;;5.10;;
23155;SDS011;11746;50.876;4.246;2023-09-08T01:36:04;9.27;;;6.00;;
23155;SDS011;11746;50.876;4.246;2023-09-08T01:38:34;5.32;;;4.75;;
23155;SDS011;11746;50.876;4.246;2023-09-08T01:40:59;7.70;;;4.85;;
23155;SDS011;11746;50.876;4.246;2023-09-08T01:43:26;8.57;;;5.00;;
23155;SDS011;11746;50.876;4.246;2023-09-08T01:45:52;8.00;;;4.88;;
23155;SDS011;11746;50.876;4.246;2023-09-08T01:48:18;7.13;;;4.90;;
23155;SDS011;11746;50.876;4.246;2023-09-08T01:50:44;53.08;;;8.90;;
23155;SDS011;11746;50.876;4.246;2023-09-08T01:53:12;97.38;;;11.65;;
23155;SDS011;11746;50.876;4.246;2023-09-08T01:55:38;202.77;;;17.88;;
23155;SDS011;11746;50.876;4.246;2023-09-08T01:58:04;64.32;;;10.32;;
23155;SDS011;11746;50.876;4.246;2023-09-08T02:00:29;30.52;;;8.02;;
23155;SDS011;11746;50.876;4.246;2023-09-08T02:02:57;29.27;;;6.88;;
23155;SDS011;11746;50.876;4.246;2023-09-08T02:05:23;22.70;;;6.05;;
23155;SDS011;11746;50.876;4.246;2023-09-08T02:07:51;10.30;;;5.90;;
23155;SDS011;11746;50.876;4.246;2023-09-08T02:10:17;16.83;;;6.03;;
23155;SDS011;11746;50.876;4.246;2023-09-08T02:12:45;10.43;;;5.55;;
23155;SDS011;11746;50.876;4.246;2023-09-08T02:15:13;8.95;;;6.38;;
23155;SDS011;11746;50.876;4.246;2023-09-08T02:17:40;16.73;;;5.60;;
23155;SDS011;11746;50.876;4.246;2023-09-08T02:20:06;13.00;;;5.75;;
23155;SDS011;11746;50.876;4.246;2023-09-08T02:22:32;9.55;;;5.57;;
23155;SDS011;11746;50.876;4.246;2023-09-08T02:24:58;9.05;;;5.13;;
23155;SDS011;11746;50.876;4.246;2023-09-08T02:27:24;10.90;;;5.70;;
23155;SDS011;11746;50.876;4.246;2023-09-08T02:29:49;9.48;;;5.30;;
23155;SDS011;11746;50.876;4.246;2023-09-08T02:32:15;9.00;;;5.35;;
23155;SDS011;11746;50.876;4.246;2023-09-08T02:34:40;7.65;;;5.15;;
23155;SDS011;11746;50.876;4.246;2023-09-08T02:37:07;8.38;;;5.50;;
23155;SDS011;11746;50.876;4.246;2023-09-08T02:39:35;7.07;;;5.70;;
23155;SDS011;11746;50.876;4.246;2023-09-08T02:42:01;8.73;;;5.13;;
23155;SDS011;11746;50.876;4.246;2023-09-08T02:44:27;7.05;;;5.25;;
23155;SDS011;11746;50.876;4.246;2023-09-08T02:46:52;10.55;;;5.93;;
23155;SDS011;11746;50.876;4.246;2023-09-08T02:49:23;8.45;;;5.72;;
23155;SDS011;11746;50.876;4.246;2023-09-08T02:51:53;6.80;;;5.05;;
23155;SDS011;11746;50.876;4.246;2023-09-08T02:54:18;6.60;;;5.40;;
23155;SDS011;11746;50.876;4.246;2023-09-08T02:56:46;9.95;;;5.70;;
23155;SDS011;11746;50.876;4.246;2023-09-08T02:59:12;6.85;;;5.47;;
23155;SDS011;11746;50.876;4.246;2023-09-08T03:01:37;7.30;;;5.70;;
23155;SDS011;11746;50.876;4.246;2023-09-08T03:04:05;6.95;;;5.40;;
23155;SDS011;11746;50.876;4.246;2023-09-08T03:06:31;10.32;;;6.90;;
23155;SDS011;11746;50.876;4.246;2023-09-08T03:08:58;8.50;;;5.65;;
23155;SDS011;11746;50.876;4.246;2023-09-08T03:11:23;9.05;;;5.55;;
23155;SDS011;11746;50.876;4.246;2023-09-08T03:13:51;10.90;;;5.60;;
23155;SDS011;11746;50.876;4.246;2023-09-08T03:16:17;9.52;;;5.97;;
23155;SDS011;11746;50.876;4.246;2023-09-08T03:18:45;9.48;;;5.55;;
23155;SDS011;11746;50.876;4.246;2023-09-08T03:21:13;8.90;;;6.32;;
23155;SDS011;11746;50.876;4.246;2023-09-08T03:23:40;7.63;;;5.80;;
23155;SDS011;11746;50.876;4.246;2023-09-08T03:26:07;7.57;;;5.57;;
23155;SDS011;11746;50.876;4.246;2023-09-08T03:28:34;8.70;;;5.75;;
23155;SDS011;11746;50.876;4.246;2023-09-08T03:31:00;8.30;;;6.00;;
23155;SDS011;11746;50.876;4.246;2023-09-08T03:33:26;8.23;;;5.60;;
23155;SDS011;11746;50.876;4.246;2023-09-08T03:35:54;8.25;;;5.90;;
23155;SDS011;11746;50.876;4.246;2023-09-08T03:38:20;10.18;;;6.00;;
23155;SDS011;11746;50.876;4.246;2023-09-08T03:40:46;8.85;;;5.85;;
23155;SDS011;11746;50.876;4.246;2023-09-08T03:43:12;9.52;;;6.45;;
23155;SDS011;11746;50.876;4.246;2023-09-08T03:45:38;8.05;;;6.25;;
23155;SDS011;11746;50.876;4.246;2023-09-08T03:48:06;9.38;;;6.30;;
23155;SDS011;11746;50.876;4.246;2023-09-08T03:50:32;7.13;;;5.93;;
23155;SDS011;11746;50.876;4.246;2023-09-08T03:52:57;9.40;;;6.15;;
23155;SDS011;11746;50.876;4.246;2023-09-08T03:55:23;8.82;;;5.47;;
23155;SDS011;11746;50.876;4.246;2023-09-08T03:57:49;10.30;;;6.15;;
23155;SDS011;11746;50.876;4.246;2023-09-08T04:00:14;7.43;;;5.82;;
23155;SDS011;11746;50.876;4.246;2023-09-08T04:02:45;8.73;;;6.20;;
23155;SDS011;11746;50.876;4.246;2023-09-08T04:05:13;11.77;;;5.88;;
23155;SDS011;11746;50.876;4.246;2023-09-08T04:07:39;8.75;;;6.28;;
23155;SDS011;11746;50.876;4.246;2023-09-08T04:10:05;10.48;;;6.78;;
23155;SDS011;11746;50.876;4.246;2023-09-08T04:12:31;9.55;;;6.95;;
23155;SDS011;11746;50.876;4.246;2023-09-08T04:14:57;8.57;;;5.93;;
23155;SDS011;11746;50.876;4.246;2023-09-08T04:17:25;8.82;;;6.53;;
23155;SDS011;11746;50.876;4.246;2023-09-08T04:19:50;9.57;;;6.30;;
23155;SDS011;11746;50.876;4.246;2023-09-08T04:22:18;7.40;;;5.97;;
23155;SDS011;11746;50.876;4.246;2023-09-08T04:24:44;9.93;;;6.60;;
23155;SDS011;11746;50.876;4.246;2023-09-08T04:27:09;7.53;;;6.18;;
23155;SDS011;11746;50.876;4.246;2023-09-08T04:29:35;8.63;;;6.05;;
23155;SDS011;11746;50.876;4.246;2023-09-08T04:32:01;6.93;;;5.80;;
23155;SDS011;11746;50.876;4.246;2023-09-08T04:34:36;9.88;;;5.85;;
23155;SDS011;11746;50.876;4.246;2023-09-08T04:37:05;28.48;;;6.47;;
23155;SDS011;11746;50.876;4.246;2023-09-08T04:39:33;31.27;;;7.13;;
23155;SDS011;11746;50.876;4.246;2023-09-08T04:42:02;22.80;;;6.80;;
23155;SDS011;11746;50.876;4.246;2023-09-08T04:44:28;22.83;;;6.57;;
23155;SDS011;11746;50.876;4.246;2023-09-08T04:46:54;13.25;;;7.10;;
23155;SDS011;11746;50.876;4.246;2023-09-08T04:49:22;63.45;;;11.85;;
23155;SDS011;11746;50.876;4.246;2023-09-08T04:51:50;19.08;;;7.97;;
23155;SDS011;11746;50.876;4.246;2023-09-08T04:54:15;33.55;;;8.50;;
23155;SDS011;11746;50.876;4.246;2023-09-08T04:56:41;16.45;;;6.68;;
23155;SDS011;11746;50.876;4.246;2023-09-08T04:59:06;11.43;;;6.25;;
23155;SDS011;11746;50.876;4.246;2023-09-08T05:01:32;7.97;;;6.78;;
23155;SDS011;11746;50.876;4.246;2023-09-08T05:03:58;9.38;;;6.05;;
23155;SDS011;11746;50.876;4.246;2023-09-08T05:06:24;8.77;;;6.28;;
23155;SDS011;11746;50.876;4.246;2023-09-08T05:08:50;7.95;;;6.47;;
23155;SDS011;11746;50.876;4.246;2023-09-08T05:11:16;7.75;;;5.90;;
23155;SDS011;11746;50.876;4.246;2023-09-08T05:13:42;24.33;;;6.55;;
23155;SDS011;11746;50.876;4.246;2023-09-08T05:16:07;28.60;;;7.55;;
23155;SDS011;11746;50.876;4.246;2023-09-08T05:18:39;25.90;;;7.57;;
23155;SDS011;11746;50.876;4.246;2023-09-08T05:21:06;15.25;;;5.95;;
23155;SDS011;11746;50.876;4.246;2023-09-08T05:23:32;16.27;;;6.45;;
23155;SDS011;11746;50.876;4.246;2023-09-08T05:25:58;15.05;;;6.30;;
23155;SDS011;11746;50.876;4.246;2023-09-08T05:28:24;10.43;;;7.03;;
23155;SDS011;11746;50.876;4.246;2023-09-08T05:30:53;11.70;;;6.72;;
23155;SDS011;11746;50.876;4.246;2023-09-08T05:33:19;15.57;;;8.43;;
23155;SDS011;11746;50.876;4.246;2023-09-08T05:35:46;65.15;;;10.75;;
23155;SDS011;11746;50.876;4.246;2023-09-08T05:38:12;131.10;;;16.02;;
23155;SDS011;11746;50.876;4.246;2023-09-08T05:40:38;44.20;;;9.95;;
23155;SDS011;11746;50.876;4.246;2023-09-08T05:43:03;23.08;;;7.75;;
23155;SDS011;11746;50.876;4.246;2023-09-08T05:45:31;19.88;;;8.05;;
23155;SDS011;11746;50.876;4.246;2023-09-08T05:47:57;14.70;;;7.32;;
23155;SDS011;11746;50.876;4.246;2023-09-08T05:50:25;10.45;;;7.10;;
23155;SDS011;11746;50.876;4.246;2023-09-08T05:52:51;9.70;;;6.85;;
23155;SDS011;11746;50.876;4.246;2023-09-08T05:55:16;10.63;;;6.75;;
23155;SDS011;11746;50.876;4.246;2023-09-08T05:57:42;16.30;;;7.32;;
23155;SDS011;11746;50.876;4.246;2023-09-08T06:00:08;16.45;;;7.65;;
23155;SDS011;11746;50.876;4.246;2023-09-08T06:02:34;13.80;;;7.40;;
23155;SDS011;11746;50.876;4.246;2023-09-08T06:04:59;7.95;;;6.90;;
23155;SDS011;11746;50.876;4.246;2023-09-08T06:07:25;8.73;;;6.50;;
23155;SDS011;11746;50.876;4.246;2023-09-08T06:09:51;7.18;;;6.18;;
23155;SDS011;11746;50.876;4.246;2023-09-08T06:12:16;10.50;;;6.45;;
23155;SDS011;11746;50.876;4.246;2023-09-08T06:14:42;7.85;;;6.15;;
23155;SDS011;11746;50.876;4.246;2023-09-08T06:17:09;12.57;;;6.03;;
23155;SDS011;11746;50.876;4.246;2023-09-08T06:19:35;8.68;;;6.50;;
23155;SDS011;11746;50.876;4.246;2023-09-08T06:22:03;9.40;;;6.43;;
23155;SDS011;11746;50.876;4.246;2023-09-08T06:24:28;9.32;;;6.22;;
23155;SDS011;11746;50.876;4.246;2023-09-08T06:26:54;8.38;;;5.88;;
23155;SDS011;11746;50.876;4.246;2023-09-08T06:29:22;13.35;;;7.03;;
23155;SDS011;11746;50.876;4.246;2023-09-08T06:31:48;14.40;;;6.65;;
23155;SDS011;11746;50.876;4.246;2023-09-08T06:34:13;23.38;;;8.00;;
23155;SDS011;11746;50.876;4.246;2023-09-08T06:36:41;11.88;;;6.50;;
23155;SDS011;11746;50.876;4.246;2023-09-08T06:39:07;15.30;;;6.63;;
23155;SDS011;11746;50.876;4.246;2023-09-08T06:41:32;21.30;;;6.70;;
23155;SDS011;11746;50.876;4.246;2023-09-08T06:44:02;18.15;;;6.90;;
23155;SDS011;11746;50.876;4.246;2023-09-08T06:46:31;15.07;;;7.10;;
23155;SDS011;11746;50.876;4.246;2023-09-08T06:48:56;37.50;;;9.80;;
23155;SDS011;11746;50.876;4.246;2023-09-08T06:51:22;23.80;;;7.72;;
23155;SDS011;11746;50.876;4.246;2023-09-08T06:53:57;11.45;;;6.90;;
23155;SDS011;11746;50.876;4.246;2023-09-08T06:56:25;12.35;;;6.03;;
23155;SDS011;11746;50.876;4.246;2023-09-08T06:58:51;10.63;;;6.18;;
23155;SDS011;11746;50.876;4.246;2023-09-08T07:01:17;11.55;;;6.15;;
23155;SDS011;11746;50.876;4.246;2023-09-08T07:03:45;9.75;;;6.47;;
23155;SDS011;11746;50.876;4.246;2023-09-08T07:06:12;9.43;;;6.03;;
23155;SDS011;11746;50.876;4.246;2023-09-08T07:08:38;10.60;;;6.13;;
23155;SDS011;11746;50.876;4.246;2023-09-08T07:11:04;9.57;;;6.22;;
23155;SDS011;11746;50.876;4.246;2023-09-08T07:13:29;11.68;;;6.70;;
23155;SDS011;11746;50.876;4.246;2023-09-08T07:15:55;9.57;;;6.88;;
23155;SDS011;11746;50.876;4.246;2023-09-08T07:18:20;10.20;;;6.40;;
23155;SDS011;11746;50.876;4.246;2023-09-08T07:20:49;10.68;;;6.65;;
23155;SDS011;11746;50.876;4.246;2023-09-08T07:23:17;9.30;;;6.50;;
23155;SDS011;11746;50.876;4.246;2023-09-08T07:25:46;7.00;;;6.05;;
23155;SDS011;11746;50.876;4.246;2023-09-08T07:28:12;10.75;;;6.70;;
23155;SDS011;11746;50.876;4.246;2023-09-08T07:30:38;14.07;;;7.05;;
23155;SDS011;11746;50.876;4.246;2023-09-08T07:33:03;13.25;;;6.57;;
23155;SDS011;11746;50.876;4.246;2023-09-08T07:35:30;8.20;;;6.13;;
23155;SDS011;11746;50.876;4.246;2023-09-08T07:37:56;8.73;;;6.97;;
23155;SDS011;11746;50.876;4.246;2023-09-08T07:40:22;8.18;;;6.82;;
23155;SDS011;11746;50.876;4.246;2023-09-08T07:42:50;9.90;;;7.25;;
23155;SDS011;11746;50.876;4.246;2023-09-08T07:45:18;9.60;;;7.40;;
23155;SDS011;11746;50.876;4.246;2023-09-08T07:47:43;10.27;;;7.15;;
23155;SDS011;11746;50.876;4.246;2023-09-08T07:50:24;17.67;;;7.55;;
23155;SDS011;11746;50.876;4.246;2023-09-08T07:52:52;12.00;;;8.52;;
23155;SDS011;11746;50.876;4.246;2023-09-08T07:55:19;10.45;;;8.38;;
23155;SDS011;11746;50.876;4.246;2023-09-08T07:57:48;12.18;;;8.75;;
23155;SDS011;11746;50.876;4.246;2023-09-08T08:00:14;9.48;;;8.48;;
23155;SDS011;11746;50.876;4.246;2023-09-08T08:02:47;14.55;;;9.07;;
23155;SDS011;11746;50.876;4.246;2023-09-08T08:05:14;10.55;;;8.52;;
23155;SDS011;11746;50.876;4.246;2023-09-08T08:07:41;11.45;;;8.02;;
23155;SDS011;11746;50.876;4.246;2023-09-08T08:10:09;11.07;;;8.90;;
23155;SDS011;11746;50.876;4.246;2023-09-08T08:12:38;14.55;;;8.68;;
23155;SDS011;11746;50.876;4.246;2023-09-08T08:15:06;11.45;;;9.25;;
23155;SDS011;11746;50.876;4.246;2023-09-08T08:17:35;11.30;;;9.18;;
23155;SDS011;11746;50.876;4.246;2023-09-08T08:20:02;12.68;;;8.65;;
23155;SDS011;11746;50.876;4.246;2023-09-08T08:22:35;14.18;;;9.40;;
23155;SDS011;11746;50.876;4.246;2023-09-08T08:25:01;11.05;;;8.70;;
23155;SDS011;11746;50.876;4.246;2023-09-08T08:27:28;15.07;;;8.40;;
23155;SDS011;11746;50.876;4.246;2023-09-08T08:29:55;10.18;;;8.60;;
23155;SDS011;11746;50.876;4.246;2023-09-08T08:32:22;9.75;;;8.75;;
23155;SDS011;11746;50.876;4.246;2023-09-08T08:34:48;10.15;;;8.38;;
23155;SDS011;11746;50.876;4.246;2023-09-08T08:37:13;12.93;;;8.13;;
23155;SDS011;11746;50.876;4.246;2023-09-08T08:39:41;9.65;;;7.90;;
23155;SDS011;11746;50.876;4.246;2023-09-08T08:42:10;13.32;;;8.25;;
23155;SDS011;11746;50.876;4.246;2023-09-08T08:44:37;11.27;;;7.80;;
23155;SDS011;11746;50.876;4.246;2023-09-08T08:47:08;13.02;;;8.23;;
23155;SDS011;11746;50.876;4.246;2023-09-08T08:49:38;10.75;;;8.93;;
23155;SDS011;11746;50.876;4.246;2023-09-08T08:52:10;14.38;;;8.82;;
23155;SDS011;11746;50.876;4.246;2023-09-08T08:54:39;9.63;;;8.68;;
23155;SDS011;11746;50.876;4.246;2023-09-08T08:57:07;11.20;;;9.38;;
23155;SDS011;11746;50.876;4.246;2023-09-08T08:59:36;16.02;;;9.70;;
23155;SDS011;11746;50.876;4.246;2023-09-08T09:02:02;9.98;;;8.95;;
23155;SDS011;11746;50.876;4.246;2023-09-08T09:04:31;11.48;;;9.05;;
23155;SDS011;11746;50.876;4.246;2023-09-08T09:07:02;13.45;;;9.45;;
23155;SDS011;11746;50.876;4.246;2023-09-08T09:09:29;20.67;;;9.77;;
23155;SDS011;11746;50.876;4.246;2023-09-08T09:11:54;11.30;;;9.32;;
23155;SDS011;11746;50.876;4.246;2023-09-08T09:14:22;12.98;;;9.15;;
23155;SDS011;11746;50.876;4.246;2023-09-08T09:16:53;10.93;;;8.82;;
23155;SDS011;11746;50.876;4.246;2023-09-08T09:19:22;15.45;;;9.27;;
23155;SDS011;11746;50.876;4.246;2023-09-08T09:21:56;12.90;;;10.32;;
23155;SDS011;11746;50.876;4.246;2023-09-08T09:27:02;11.07;;;9.98;;
23155;SDS011;11746;50.876;4.246;2023-09-08T09:29:30;12.35;;;9.48;;
23155;SDS011;11746;50.876;4.246;2023-09-08T09:34:31;16.45;;;9.60;;
23155;SDS011;11746;50.876;4.246;2023-09-08T09:36:59;9.73;;;8.63;;
23155;SDS011;11746;50.876;4.246;2023-09-08T09:39:25;10.02;;;8.23;;
23155;SDS011;11746;50.876;4.246;2023-09-08T09:41:55;10.45;;;8.10;;
23155;SDS011;11746;50.876;4.246;2023-09-08T09:44:22;8.90;;;6.97;;
23155;SDS011;11746;50.876;4.246;2023-09-08T09:46:48;11.18;;;8.77;;
23155;SDS011;11746;50.876;4.246;2023-09-08T09:49:16;12.45;;;8.50;;
23155;SDS011;11746;50.876;4.246;2023-09-08T09:51:45;12.75;;;8.70;;
23155;SDS011;11746;50.876;4.246;2023-09-08T09:54:20;11.13;;;8.15;;
23155;SDS011;11746;50.876;4.246;2023-09-08T09:56:48;10.02;;;7.35;;
23155;SDS011;11746;50.876;4.246;2023-09-08T09:59:19;11.35;;;7.63;;
23155;SDS011;11746;50.876;4.246;2023-09-08T10:01:49;10.63;;;8.75;;
23155;SDS011;11746;50.876;4.246;2023-09-08T10:04:15;9.52;;;8.02;;
23155;SDS011;11746;50.876;4.246;2023-09-08T10:06:43;10.32;;;8.00;;
23155;SDS011;11746;50.876;4.246;2023-09-08T10:09:12;10.98;;;7.85;;
23155;SDS011;11746;50.876;4.246;2023-09-08T10:11:43;11.07;;;7.45;;
23155;SDS011;11746;50.876;4.246;2023-09-08T10:14:12;8.75;;;7.40;;
23155;SDS011;11746;50.876;4.246;2023-09-08T10:16:40;10.95;;;7.65;;
23155;SDS011;11746;50.876;4.246;2023-09-08T10:19:14;8.05;;;6.85;;
23155;SDS011;11746;50.876;4.246;2023-09-08T10:21:47;10.52;;;7.32;;
23155;SDS011;11746;50.876;4.246;2023-09-08T10:24:18;7.53;;;6.72;;
23155;SDS011;11746;50.876;4.246;2023-09-08T10:26:51;10.45;;;6.45;;
23155;SDS011;11746;50.876;4.246;2023-09-08T10:29:23;9.05;;;6.30;;
23155;SDS011;11746;50.876;4.246;2023-09-08T10:31:54;32.28;;;8.25;;
23155;SDS011;11746;50.876;4.246;2023-09-08T10:34:21;8.77;;;6.97;;
23155;SDS011;11746;50.876;4.246;2023-09-08T10:36:49;7.45;;;6.32;;
23155;SDS011;11746;50.876;4.246;2023-09-08T10:39:27;9.32;;;6.18;;
23155;SDS011;11746;50.876;4.246;2023-09-08T10:42:19;7.88;;;5.50;;
23155;SDS011;11746;50.876;4.246;2023-09-08T10:44:55;11.00;;;5.97;;
23155;SDS011;11746;50.876;4.246;2023-09-08T10:47:32;7.97;;;6.00;;
23155;SDS011;11746;50.876;4.246;2023-09-08T10:50:06;7.40;;;5.57;;
23155;SDS011;11746;50.876;4.246;2023-09-08T10:52:33;6.88;;;5.53;;
23155;SDS011;11746;50.876;4.246;2023-09-08T10:55:04;10.82;;;5.18;;
23155;SDS011;11746;50.876;4.246;2023-09-08T10:57:34;4.75;;;4.25;;
23155;SDS011;11746;50.876;4.246;2023-09-08T11:00:05;7.72;;;4.40;;
23155;SDS011;11746;50.876;4.246;2023-09-08T11:02:49;5.57;;;4.15;;
23155;SDS011;11746;50.876;4.246;2023-09-08T11:05:16;5.13;;;4.28;;
23155;SDS011;11746;50.876;4.246;2023-09-08T11:07:45;5.95;;;3.78;;
23155;SDS011;11746;50.876;4.246;2023-09-08T11:10:14;6.60;;;4.15;;
23155;SDS011;11746;50.876;4.246;2023-09-08T11:12:43;7.28;;;3.47;;
23155;SDS011;11746;50.876;4.246;2023-09-08T11:15:08;8.55;;;3.83;;
23155;SDS011;11746;50.876;4.246;2023-09-08T11:17:35;6.90;;;4.07;;
23155;SDS011;11746;50.876;4.246;2023-09-08T11:20:07;5.78;;;3.72;;
23155;SDS011;11746;50.876;4.246;2023-09-08T11:22:35;7.15;;;3.88;;
23155;SDS011;11746;50.876;4.246;2023-09-08T11:25:06;5.80;;;3.88;;
23155;SDS011;11746;50.876;4.246;2023-09-08T11:27:32;7.32;;;3.92;;
23155;SDS011;11746;50.876;4.246;2023-09-08T11:29:58;5.68;;;4.40;;
23155;SDS011;11746;50.876;4.246;2023-09-08T11:32:24;5.63;;;4.15;;
23155;SDS011;11746;50.876;4.246;2023-09-08T11:35:00;4.63;;;4.00;;
23155;SDS011;11746;50.876;4.246;2023-09-08T11:37:29;5.40;;;3.80;;
23155;SDS011;11746;50.876;4.246;2023-09-08T11:39:55;4.22;;;3.50;;
23155;SDS011;11746;50.876;4.246;2023-09-08T11:42:20;7.22;;;3.83;;
23155;SDS011;11746;50.876;4.246;2023-09-08T11:44:46;5.55;;;3.90;;
23155;SDS011;11746;50.876;4.246;2023-09-08T11:47:16;7.32;;;4.28;;
23155;SDS011;11746;50.876;4.246;2023-09-08T11:49:42;6.13;;;4.43;;
23155;SDS011;11746;50.876;4.246;2023-09-08T11:52:09;9.05;;;4.22;;
23155;SDS011;11746;50.876;4.246;2023-09-08T11:54:35;7.93;;;4.68;;
23155;SDS011;11746;50.876;4.246;2023-09-08T11:57:04;4.32;;;3.83;;
23155;SDS011;11746;50.876;4.246;2023-09-08T11:59:39;4.43;;;3.85;;
23155;SDS011;11746;50.876;4.246;2023-09-08T12:02:08;8.65;;;4.30;;
23155;SDS011;11746;50.876;4.246;2023-09-08T12:04:35;7.32;;;4.18;;
23155;SDS011;11746;50.876;4.246;2023-09-08T12:07:06;6.93;;;4.82;;
23155;SDS011;11746;50.876;4.246;2023-09-08T12:09:32;8.95;;;4.32;;
23155;SDS011;11746;50.876;4.246;2023-09-08T12:12:00;8.32;;;3.47;;
23155;SDS011;11746;50.876;4.246;2023-09-08T12:14:39;7.55;;;5.10;;
23155;SDS011;11746;50.876;4.246;2023-09-08T12:17:07;9.70;;;4.22;;
23155;SDS011;11746;50.876;4.246;2023-09-08T12:19:35;6.25;;;3.72;;
23155;SDS011;11746;50.876;4.246;2023-09-08T12:22:04;5.88;;;3.90;;
23155;SDS011;11746;50.876;4.246;2023-09-08T12:27:21;8.30;;;4.22;;
23155;SDS011;11746;50.876;4.246;2023-09-08T12:29:59;6.50;;;3.78;;
23155;SDS011;11746;50.876;4.246;2023-09-08T12:32:29;4.97;;;3.47;;
23155;SDS011;11746;50.876;4.246;2023-09-08T12:34:56;9.45;;;4.93;;
23155;SDS011;11746;50.876;4.246;2023-09-08T12:37:24;11.13;;;4.50;;
23155;SDS011;11746;50.876;4.246;2023-09-08T12:39:56;4.85;;;3.97;;
23155;SDS011;11746;50.876;4.246;2023-09-08T12:42:22;8.43;;;4.38;;
23155;SDS011;11746;50.876;4.246;2023-09-08T12:44:51;6.88;;;4.00;;
23155;SDS011;11746;50.876;4.246;2023-09-08T12:47:17;6.60;;;4.65;;
23155;SDS011;11746;50.876;4.246;2023-09-08T12:49:42;6.13;;;4.05;;
23155;SDS011;11746;50.876;4.246;2023-09-08T12:52:12;15.88;;;3.90;;
23155;SDS011;11746;50.876;4.246;2023-09-08T12:54:40;9.52;;;4.10;;
23155;SDS011;11746;50.876;4.246;2023-09-08T12:57:06;6.97;;;4.00;;
23155;SDS011;11746;50.876;4.246;2023-09-08T12:59:31;8.93;;;3.80;;
23155;SDS011;11746;50.876;4.246;2023-09-08T13:01:57;7.97;;;3.58;;
23155;SDS011;11746;50.876;4.246;2023-09-08T13:04:25;9.10;;;3.78;;
23155;SDS011;11746;50.876;4.246;2023-09-08T13:06:51;5.32;;;3.25;;
23155;SDS011;11746;50.876;4.246;2023-09-08T13:09:16;5.53;;;3.40;;
23155;SDS011;11746;50.876;4.246;2023-09-08T13:11:42;4.80;;;3.22;;
23155;SDS011;11746;50.876;4.246;2023-09-08T13:14:12;4.82;;;3.30;;
23155;SDS011;11746;50.876;4.246;2023-09-08T13:16:38;8.48;;;3.38;;
23155;SDS011;11746;50.876;4.246;2023-09-08T13:19:03;7.75;;;3.30;;
23155;SDS011;11746;50.876;4.246;2023-09-08T13:21:31;10.48;;;3.83;;
23155;SDS011;11746;50.876;4.246;2023-09-08T13:23:56;6.70;;;3.38;;
23155;SDS011;11746;50.876;4.246;2023-09-08T13:26:24;5.75;;;3.40;;
23155;SDS011;11746;50.876;4.246;2023-09-08T13:28:50;11.15;;;4.05;;
23155;SDS011;11746;50.876;4.246;2023-09-08T13:31:18;7.25;;;3.60;;
23155;SDS011;11746;50.876;4.246;2023-09-08T13:33:46;10.60;;;3.75;;
23155;SDS011;11746;50.876;4.246;2023-09-08T13:36:13;9.55;;;3.97;;
23155;SDS011;11746;50.876;4.246;2023-09-08T13:38:41;8.82;;;3.50;;
23155;SDS011;11746;50.876;4.246;2023-09-08T13:41:07;8.60;;;3.63;;
23155;SDS011;11746;50.876;4.246;2023-09-08T13:43:32;10.15;;;3.70;;
23155;SDS011;11746;50.876;4.246;2023-09-08T13:45:58;9.52;;;3.92;;
23155;SDS011;11746;50.876;4.246;2023-09-08T13:48:23;10.35;;;3.90;;
23155;SDS011;11746;50.876;4.246;2023-09-08T13:50:51;10.50;;;3.88;;
23155;SDS011;11746;50.876;4.246;2023-09-08T13:53:20;10.70;;;4.00;;
23155;SDS011;11746;50.876;4.246;2023-09-08T13:55:46;12.35;;;4.07;;
23155;SDS011;11746;50.876;4.246;2023-09-08T13:58:13;13.43;;;3.70;;
23155;SDS011;11746;50.876;4.246;2023-09-08T14:00:40;11.07;;;3.75;;
23155;SDS011;11746;50.876;4.246;2023-09-08T14:03:09;16.50;;;3.85;;
23155;SDS011;11746;50.876;4.246;2023-09-08T14:05:36;64.38;;;8.02;;
23155;SDS011;11746;50.876;4.246;2023-09-08T14:08:05;10.52;;;4.32;;
23155;SDS011;11746;50.876;4.246;2023-09-08T14:10:30;11.60;;;3.97;;
23155;SDS011;11746;50.876;4.246;2023-09-08T14:12:58;8.05;;;3.80;;
23155;SDS011;11746;50.876;4.246;2023-09-08T14:15:24;14.68;;;4.47;;
23155;SDS011;11746;50.876;4.246;2023-09-08T14:17:49;7.70;;;3.75;;
23155;SDS011;11746;50.876;4.246;2023-09-08T14:20:15;14.93;;;3.83;;
23155;SDS011;11746;50.876;4.246;2023-09-08T14:22:40;11.45;;;3.67;;
23155;SDS011;11746;50.876;4.246;2023-09-08T14:25:07;7.43;;;4.00;;
23155;SDS011;11746;50.876;4.246;2023-09-08T14:27:33;8.77;;;4.00;;
23155;SDS011;11746;50.876;4.246;2023-09-08T14:30:00;12.70;;;3.95;;
23155;SDS011;11746;50.876;4.246;2023-09-08T14:32:25;14.60;;;4.00;;
23155;SDS011;11746;50.876;4.246;2023-09-08T14:34:53;12.20;;;4.15;;
23155;SDS011;11746;50.876;4.246;2023-09-08T14:37:19;16.92;;;4.22;;
23155;SDS011;11746;50.876;4.246;2023-09-08T14:39:47;16.52;;;5.38;;
23155;SDS011;11746;50.876;4.246;2023-09-08T14:42:13;30.10;;;5.03;;
23155;SDS011;11746;50.876;4.246;2023-09-08T14:44:41;13.27;;;4.55;;
23155;SDS011;11746;50.876;4.246;2023-09-08T14:47:07;14.70;;;4.30;;
23155;SDS011;11746;50.876;4.246;2023-09-08T14:49:33;14.88;;;4.40;;
23155;SDS011;11746;50.876;4.246;2023-09-08T14:51:59;23.67;;;4.85;;
23155;SDS011;11746;50.876;4.246;2023-09-08T14:54:25;12.65;;;4.55;;